Time;durP1;ratioP1;P1;durP2;ratioP2;P2;SDS_P1;SDS_P2;PMS_P1;PMS_P2;Temp;Humidity;BMP_temperature;BMP_pressure;BME280_temperature;BME280_humidity;BME280_pressure;Samples;Min_cycle;Max_cycle;Signal;HPM_P1;HPM_P2
2021/01/31 00:01:23;;;;;;;12.80;8.93;;;;;1.30;99631.00;;;;10410923;28;20256;-80
2021/01/31 00:07:01;;;;;;;13.37;9.23;;;;;1.30;99635.00;;;;10429571;28;20275;-80
2021/01/31 00:12:36;;;;;;;12.70;9.20;;;;;1.20;99631.00;;;;10427233;28;20226;-81
2021/01/31 00:18:13;;;;;;;13.90;10.00;;;;;1.20;99626.00;;;;10445437;28;20228;-80
2021/01/31 00:23:47;;;;;;;13.70;9.63;;;;;1.20;99640.00;;;;10418286;28;20190;-80
2021/01/31 00:29:23;;;;;;;13.57;9.80;;;;;1.20;99655.00;;;;10433236;28;20244;-81
2021/01/31 00:35:00;;;;;;;12.77;9.80;;;;;1.20;99652.00;;;;10419731;28;20680;-80
2021/01/31 00:40:35;;;;;;;14.80;9.60;;;;;1.20;99660.00;;;;10432373;28;20586;-80
2021/01/31 00:46:10;;;;;;;13.53;9.27;;;;;1.10;99652.00;;;;10415464;28;20316;-81
2021/01/31 00:51:45;;;;;;;13.33;9.70;;;;;1.00;99641.00;;;;10442327;28;20205;-81
2021/01/31 00:57:21;;;;;;;12.57;10.47;;;;;0.80;99652.00;;;;10419478;28;20306;-80
2021/01/31 01:02:56;;;;;;;14.03;11.60;;;;;0.70;99660.00;;;;10416570;28;20289;-80
2021/01/31 01:08:50;;;;;;;13.47;9.70;;;;;0.60;99663.00;;;;10386776;28;20211;-80
2021/01/31 01:14:26;;;;;;;14.87;10.17;;;;;0.40;99660.00;;;;10386914;28;20211;-80
2021/01/31 01:20:00;;;;;;;15.10;11.33;;;;;0.40;99660.00;;;;10399737;28;20195;-81
2021/01/31 01:25:35;;;;;;;15.33;11.57;;;;;0.20;99672.00;;;;10381503;28;20207;-80
2021/01/31 01:31:10;;;;;;;16.47;11.63;;;;;0.20;99673.00;;;;10386104;28;20556;-79
2021/01/31 01:36:47;;;;;;;14.43;11.17;;;;;0.10;99676.00;;;;10383780;28;20219;-79
2021/01/31 01:42:21;;;;;;;15.57;12.13;;;;;0.00;99687.00;;;;10360458;28;20195;-80
2021/01/31 01:48:00;;;;;;;15.30;11.07;;;;;-0.10;99680.00;;;;10427412;28;20198;-80
2021/01/31 01:53:34;;;;;;;16.37;11.73;;;;;-0.10;99683.00;;;;10427521;28;20565;-80
2021/01/31 01:59:10;;;;;;;16.80;11.90;;;;;-0.20;99676.00;;;;10418027;28;20235;-82
2021/01/31 02:04:46;;;;;;;18.07;12.73;;;;;-0.20;99681.00;;;;10407456;28;20241;-80
2021/01/31 02:10:25;;;;;;;17.87;12.43;;;;;-0.30;99679.00;;;;10395610;28;20213;-81
2021/01/31 02:16:04;;;;;;;20.63;12.67;;;;;-0.30;99679.00;;;;10419800;28;20228;-81
2021/01/31 02:22:18;;;;;;;17.47;11.23;;;;;-0.40;99677.00;;;;10441507;28;20202;-81
2021/01/31 02:28:02;;;;;;;19.53;13.63;;;;;-0.50;99670.00;;;;10426403;28;20202;-82
2021/01/31 02:33:49;;;;;;;17.30;13.37;;;;;-0.40;99670.00;;;;10442723;28;20213;-81
2021/01/31 02:39:29;;;;;;;19.60;12.43;;;;;-0.50;99668.00;;;;10425683;28;20669;-81
2021/01/31 02:45:12;;;;;;;18.07;13.17;;;;;-0.50;99666.00;;;;10441666;28;20303;-81
2021/01/31 02:50:52;;;;;;;18.43;12.47;;;;;-0.60;99671.00;;;;10428232;28;20229;-81
2021/01/31 02:56:35;;;;;;;18.90;13.80;;;;;-0.60;99678.00;;;;10461104;28;20323;-81
2021/01/31 03:02:14;;;;;;;21.00;12.77;;;;;-0.60;99686.00;;;;10444954;28;20749;-80
2021/01/31 03:08:13;;;;;;;21.30;14.23;;;;;-0.60;99679.00;;;;10458131;28;20278;-81
2021/01/31 03:13:59;;;;;;;18.97;13.37;;;;;-0.60;99668.00;;;;10443253;28;20206;-81
2021/01/31 03:19:44;;;;;;;20.47;13.93;;;;;-0.70;99673.00;;;;10459025;28;20675;-80
2021/01/31 03:25:28;;;;;;;20.63;14.63;;;;;-0.70;99680.00;;;;10414019;28;20676;-81
2021/01/31 03:31:06;;;;;;;21.33;14.27;;;;;-0.70;99681.00;;;;10417414;28;20273;-80
2021/01/31 03:36:47;;;;;;;25.87;15.70;;;;;-0.80;99698.00;;;;10439630;28;20322;-81
2021/01/31 03:42:22;;;;;;;25.37;15.50;;;;;-0.80;99691.00;;;;10410843;28;20225;-81
2021/01/31 03:48:14;;;;;;;21.93;14.23;;;;;-0.80;99682.00;;;;10455657;28;20187;-81
2021/01/31 03:53:49;;;;;;;21.67;15.37;;;;;-0.90;99699.00;;;;10443623;28;20240;-81
2021/01/31 03:59:33;;;;;;;20.80;14.80;;;;;-0.90;99700.00;;;;10406901;28;20191;-81
2021/01/31 04:05:10;;;;;;;22.10;14.47;;;;;-0.90;99695.00;;;;10436132;28;20217;-82
2021/01/31 04:10:49;;;;;;;20.47;15.10;;;;;-0.90;99691.00;;;;10422727;28;20198;-80
2021/01/31 04:16:17;;;;;;;21.90;14.73;;;;;-1.00;99689.00;;;;10420452;28;20267;-80
2021/01/31 04:21:52;;;;;;;25.10;15.87;;;;;-0.90;99699.00;;;;10417275;28;20194;-81
2021/01/31 04:27:27;;;;;;;24.47;15.30;;;;;-0.80;99693.00;;;;10433055;28;20196;-80
2021/01/31 04:33:02;;;;;;;22.73;15.17;;;;;-0.90;99696.00;;;;10445794;28;20198;-81
2021/01/31 04:38:37;;;;;;;21.53;15.07;;;;;-0.90;99702.00;;;;10442548;28;20304;-81
2021/01/31 04:44:14;;;;;;;21.73;15.97;;;;;-0.90;99708.00;;;;10417147;28;20222;-81
2021/01/31 04:50:06;;;;;;;24.77;16.43;;;;;-0.90;99711.00;;;;10431208;28;20218;-80
2021/01/31 04:56:04;;;;;;;25.57;17.13;;;;;-1.00;99717.00;;;;10418035;28;20309;-80
2021/01/31 05:01:40;;;;;;;25.63;17.27;;;;;-1.00;99705.00;;;;10383412;28;20261;-81
2021/01/31 05:07:17;;;;;;;26.30;16.37;;;;;-1.10;99719.00;;;;10388845;28;20258;-81
2021/01/31 05:12:57;;;;;;;27.10;18.67;;;;;-1.10;99718.00;;;;10392950;28;20823;-80
2021/01/31 05:18:33;;;;;;;24.33;16.50;;;;;-1.10;99723.00;;;;10431099;28;20256;-79
2021/01/31 05:24:26;;;;;;;25.33;17.03;;;;;-1.10;99724.00;;;;10449278;28;20233;-80
2021/01/31 05:30:01;;;;;;;30.37;17.60;;;;;-1.20;99738.00;;;;10403376;28;20294;-81
2021/01/31 05:35:39;;;;;;;22.23;16.43;;;;;-1.20;99755.00;;;;10403840;28;20285;-80
2021/01/31 05:41:33;;;;;;;24.77;17.53;;;;;-1.20;99760.00;;;;10404798;28;20274;-81
2021/01/31 05:47:24;;;;;;;27.80;17.23;;;;;-1.30;99765.00;;;;10393361;28;20227;-81
2021/01/31 05:52:59;;;;;;;30.33;17.73;;;;;-1.40;99766.00;;;;10432681;28;20595;-80
2021/01/31 05:58:34;;;;;;;28.90;18.73;;;;;-1.40;99757.00;;;;10455797;28;20214;-81
2021/01/31 06:04:20;;;;;;;28.63;18.67;;;;;-1.40;99756.00;;;;10425903;28;20201;-81
2021/01/31 06:09:57;;;;;;;26.30;16.90;;;;;-1.50;99744.00;;;;10439759;28;20206;-81
2021/01/31 06:15:42;;;;;;;26.10;17.00;;;;;-1.50;99751.00;;;;10427311;28;20220;-80
2021/01/31 06:21:23;;;;;;;29.97;18.10;;;;;-1.50;99760.00;;;;10425983;28;20205;-80
2021/01/31 06:26:59;;;;;;;29.17;19.37;;;;;-1.60;99765.00;;;;10458369;28;20241;-80
2021/01/31 06:32:37;;;;;;;28.27;18.13;;;;;-1.60;99771.00;;;;10426121;28;20201;-81
2021/01/31 06:38:28;;;;;;;33.03;19.00;;;;;-1.60;99767.00;;;;10458787;28;20221;-80
2021/01/31 06:44:15;;;;;;;29.80;19.97;;;;;-1.60;99768.00;;;;10458772;28;20249;-80
2021/01/31 06:50:21;;;;;;;29.00;19.70;;;;;-1.60;99777.00;;;;10428171;28;20292;-80
2021/01/31 06:55:56;;;;;;;26.93;19.50;;;;;-1.70;99770.00;;;;10440599;28;20469;-80
2021/01/31 07:01:47;;;;;;;30.60;19.07;;;;;-1.70;99769.00;;;;10423840;28;20190;-80
2021/01/31 07:07:55;;;;;;;28.80;18.07;;;;;-1.70;99784.00;;;;10439440;28;20198;-80
2021/01/31 07:13:39;;;;;;;32.10;18.97;;;;;-1.70;99759.00;;;;10437708;28;20215;-80
2021/01/31 07:19:23;;;;;;;34.20;21.93;;;;;-1.60;99776.00;;;;10430645;28;20240;-80
2021/01/31 07:25:24;;;;;;;34.13;19.73;;;;;-1.60;99784.00;;;;10437016;28;20216;-80
2021/01/31 07:31:07;;;;;;;35.07;21.30;;;;;-1.60;99783.00;;;;10439105;28;20291;-81
2021/01/31 07:37:05;;;;;;;34.87;22.67;;;;;-1.50;99790.00;;;;10425460;28;20228;-81
2021/01/31 07:42:43;;;;;;;32.53;20.73;;;;;-1.50;99799.00;;;;10455136;28;20187;-80
2021/01/31 07:48:39;;;;;;;34.83;21.67;;;;;-1.30;99810.00;;;;10438361;28;20310;-81
2021/01/31 07:54:29;;;;;;;33.67;22.63;;;;;-1.20;99804.00;;;;10438170;28;20299;-80
2021/01/31 08:00:04;;;;;;;34.13;20.93;;;;;-1.00;99803.00;;;;10458595;28;20229;-80
2021/01/31 08:05:54;;;;;;;30.20;18.20;;;;;-0.80;99808.00;;;;10425619;28;20233;-81
2021/01/31 08:11:32;;;;;;;28.70;18.13;;;;;-0.80;99828.00;;;;10453324;28;20195;-80
2021/01/31 08:17:07;;;;;;;28.83;18.83;;;;;-0.70;99805.00;;;;10455028;28;20214;-79
2021/01/31 08:22:42;;;;;;;28.90;19.53;;;;;-0.40;99813.00;;;;10426673;28;20225;-79
2021/01/31 08:28:22;;;;;;;26.13;17.97;;;;;-0.20;99826.00;;;;10455408;28;20198;-79
2021/01/31 08:34:10;;;;;;;22.87;15.80;;;;;-0.30;99823.00;;;;10439137;28;20219;-80
2021/01/31 08:39:46;;;;;;;25.20;15.87;;;;;-0.40;99820.00;;;;10422006;28;20652;-80
2021/01/31 08:45:21;;;;;;;25.60;17.73;;;;;-0.40;99817.00;;;;10441774;28;20279;-80
2021/01/31 08:51:12;;;;;;;24.47;17.00;;;;;-0.30;99794.00;;;;10435328;28;20194;-78
2021/01/31 08:57:19;;;;;;;25.07;16.43;;;;;-0.20;99788.00;;;;10435836;28;20974;-79
2021/01/31 09:02:54;;;;;;;22.53;15.73;;;;;0.20;99771.00;;;;10438309;28;20553;-79
2021/01/31 09:08:29;;;;;;;21.50;14.57;;;;;0.60;99747.00;;;;10449314;28;20661;-78
2021/01/31 09:14:25;;;;;;;22.90;15.07;;;;;0.80;99755.00;;;;10433249;28;20669;-79
2021/01/31 09:20:26;;;;;;;18.03;12.53;;;;;1.10;99758.00;;;;10416929;28;20212;-80
2021/01/31 09:26:02;;;;;;;22.30;14.83;;;;;1.10;99761.00;;;;10410159;28;20211;-79
2021/01/31 09:31:37;;;;;;;20.13;14.17;;;;;1.00;99762.00;;;;10388879;28;20562;-79
2021/01/31 09:37:18;;;;;;;21.27;13.47;;;;;1.10;99769.00;;;;10419362;28;20675;-79
2021/01/31 09:42:53;;;;;;;20.17;13.53;;;;;1.10;99772.00;;;;10432292;28;20789;-81
2021/01/31 09:48:31;;;;;;;23.53;14.93;;;;;1.20;99766.00;;;;10415464;28;20245;-81
2021/01/31 09:54:36;;;;;;;22.50;15.77;;;;;1.50;99749.00;;;;10393861;28;20208;-81
2021/01/31 10:00:15;;;;;;;22.83;14.37;;;;;1.70;99738.00;;;;10431347;28;20958;-80
2021/01/31 10:05:50;;;;;;;23.57;15.40;;;;;1.90;99733.00;;;;10402855;28;20210;-80
2021/01/31 10:11:41;;;;;;;21.27;14.10;;;;;1.90;99733.00;;;;10392463;28;20194;-81
2021/01/31 10:17:37;;;;;;;21.33;15.13;;;;;2.00;99714.00;;;;10422054;28;20398;-80
2021/01/31 10:23:13;;;;;;;26.53;16.60;;;;;1.80;99713.00;;;;10429818;28;20802;-80
2021/01/31 10:28:58;;;;;;;22.43;15.07;;;;;1.80;99719.00;;;;10441768;28;20202;-80
2021/01/31 10:34:45;;;;;;;25.00;16.07;;;;;2.10;99712.00;;;;10417836;28;20204;-81
2021/01/31 10:40:22;;;;;;;24.17;16.20;;;;;2.10;99705.00;;;;10391745;28;20281;-81
2021/01/31 10:46:08;;;;;;;19.93;12.80;;;;;2.10;99706.00;;;;10413305;28;20285;-80
2021/01/31 10:51:43;;;;;;;24.50;15.77;;;;;2.10;99702.00;;;;10431527;28;20198;-79
2021/01/31 10:57:18;;;;;;;21.53;14.80;;;;;2.10;99703.00;;;;10409749;28;20305;-80
2021/01/31 11:02:53;;;;;;;19.83;11.93;;;;;2.10;99690.00;;;;10408523;28;20317;-80
2021/01/31 11:08:28;;;;;;;22.47;14.90;;;;;2.20;99675.00;;;;10432246;28;20777;-80
2021/01/31 11:13:50;;;;;;;20.87;14.47;;;;;2.40;99673.00;;;;10392531;28;20293;-81
2021/01/31 11:19:05;;;;;;;22.60;14.23;;;;;2.50;99671.00;;;;10420468;28;20235;-81
2021/01/31 11:24:40;;;;;;;23.43;15.77;;;;;2.60;99671.00;;;;10417710;28;20206;-81
2021/01/31 11:30:15;;;;;;;21.23;14.23;;;;;2.70;99673.00;;;;10422956;28;20212;-81
2021/01/31 11:35:37;;;;;;;24.40;15.03;;;;;2.60;99660.00;;;;10434103;28;20228;-81
2021/01/31 11:40:38;;;;;;;24.43;15.93;;;;;2.30;99647.00;;;;10399338;28;20211;-81
2021/01/31 11:45:40;;;;;;;22.20;14.43;;;;;2.10;99638.00;;;;10430867;28;20249;-81
2021/01/31 11:50:41;;;;;;;23.53;14.53;;;;;2.50;99621.00;;;;10419758;28;20205;-81
2021/01/31 11:55:43;;;;;;;20.97;14.27;;;;;2.70;99614.00;;;;10430454;28;20283;-80
2021/01/31 12:00:44;;;;;;;21.83;15.13;;;;;3.00;99603.00;;;;10414055;28;20240;-81
2021/01/31 12:05:45;;;;;;;19.87;14.07;;;;;2.80;99599.00;;;;10450667;28;20206;-79
2021/01/31 12:10:47;;;;;;;21.90;13.43;;;;;2.50;99589.00;;;;10410417;28;20202;-79
2021/01/31 12:15:48;;;;;;;23.53;14.87;;;;;2.50;99585.00;;;;10433967;28;20714;-80
2021/01/31 12:20:50;;;;;;;22.20;14.47;;;;;2.60;99568.00;;;;10433062;28;20658;-79
2021/01/31 12:25:52;;;;;;;21.13;15.00;;;;;2.80;99542.00;;;;10430056;28;20647;-81
2021/01/31 12:30:53;;;;;;;19.30;13.27;;;;;3.00;99534.00;;;;10415688;28;20198;-80
2021/01/31 12:35:54;;;;;;;21.83;13.90;;;;;3.10;99515.00;;;;10426592;28;20226;-81
2021/01/31 12:40:56;;;;;;;22.03;14.17;;;;;3.40;99499.00;;;;10413639;28;20205;-81
2021/01/31 12:46:13;;;;;;;19.83;14.60;;;;;3.60;99499.00;;;;10411792;28;20230;-80
2021/01/31 12:51:15;;;;;;;19.93;14.13;;;;;3.50;99502.00;;;;10423955;28;20872;-80
2021/01/31 12:56:17;;;;;;;20.67;13.73;;;;;3.70;99495.00;;;;10450141;28;20222;-79
2021/01/31 13:01:19;;;;;;;18.00;13.03;;;;;3.70;99491.00;;;;10403430;28;20195;-80
2021/01/31 13:06:20;;;;;;;17.67;12.60;;;;;3.60;99483.00;;;;10411661;28;20531;-82
2021/01/31 13:11:22;;;;;;;18.57;13.27;;;;;3.30;99482.00;;;;10440864;28;20198;-79
2021/01/31 13:16:24;;;;;;;21.80;12.30;;;;;3.00;99467.00;;;;10448958;28;20198;-80
2021/01/31 13:21:25;;;;;;;21.13;12.67;;;;;2.80;99464.00;;;;10392558;28;20205;-80
2021/01/31 13:26:27;;;;;;;19.00;12.50;;;;;2.70;99452.00;;;;10409545;28;20650;-80
2021/01/31 13:31:28;;;;;;;19.63;13.57;;;;;2.80;99451.00;;;;10448492;28;20194;-80
2021/01/31 13:36:30;;;;;;;20.00;12.93;;;;;2.90;99438.00;;;;10412230;28;20263;-80
2021/01/31 13:41:31;;;;;;;18.90;12.93;;;;;3.00;99434.00;;;;10433979;28;20252;-79
2021/01/31 13:46:34;;;;;;;20.60;12.43;;;;;3.00;99423.00;;;;10390578;28;20610;-80
2021/01/31 13:51:35;;;;;;;18.53;12.47;;;;;2.90;99417.00;;;;10436145;28;20217;-80
2021/01/31 13:56:37;;;;;;;19.93;12.80;;;;;2.90;99403.00;;;;10436519;28;20287;-81
2021/01/31 14:01:38;;;;;;;18.70;12.73;;;;;3.00;99401.00;;;;10412572;28;20198;-81
2021/01/31 14:06:39;;;;;;;21.07;13.33;;;;;3.20;99389.00;;;;10451441;28;20205;-80
2021/01/31 14:11:41;;;;;;;24.30;13.83;;;;;3.30;99374.00;;;;10413700;28;20703;-80
2021/01/31 14:16:42;;;;;;;21.13;13.60;;;;;3.20;99375.00;;;;10435385;28;20217;-81
2021/01/31 14:21:45;;;;;;;25.60;14.40;;;;;3.20;99363.00;;;;10447205;28;20247;-80
2021/01/31 14:26:47;;;;;;;22.10;14.93;;;;;3.30;99347.00;;;;10427916;28;20190;-80
2021/01/31 14:31:48;;;;;;;19.33;13.13;;;;;3.40;99338.00;;;;10429075;28;20233;-80
2021/01/31 14:37:20;;;;;;;18.07;12.90;;;;;3.30;99338.00;;;;10420682;28;20206;-80
2021/01/31 14:42:21;;;;;;;19.17;12.87;;;;;3.20;99331.00;;;;10437351;28;20186;-80
2021/01/31 14:47:23;;;;;;;23.03;13.93;;;;;3.00;99313.00;;;;10457543;28;20288;-80
2021/01/31 14:52:28;;;;;;;21.83;14.57;;;;;2.80;99320.00;;;;10429448;28;20274;-80
2021/01/31 14:57:29;;;;;;;23.03;14.53;;;;;2.70;99294.00;;;;10424148;28;20225;-80
2021/01/31 15:02:30;;;;;;;21.47;13.87;;;;;2.70;99280.00;;;;10388225;28;20216;-81
2021/01/31 15:07:33;;;;;;;20.30;13.87;;;;;2.70;99275.00;;;;10418076;28;20277;-80
2021/01/31 15:12:34;;;;;;;24.63;16.37;;;;;2.70;99280.00;;;;10417399;28;20228;-79
2021/01/31 15:17:53;;;;;;;25.00;14.33;;;;;2.70;99269.00;;;;10451608;28;20632;-78
2021/01/31 15:22:54;;;;;;;25.20;14.93;;;;;2.70;99259.00;;;;10382682;28;20252;-79
2021/01/31 15:27:56;;;;;;;23.90;15.47;;;;;2.60;99256.00;;;;10436071;28;20256;-79
2021/01/31 15:32:58;;;;;;;21.37;15.80;;;;;2.50;99255.00;;;;10441001;28;20194;-80
2021/01/31 15:37:59;;;;;;;20.73;12.90;;;;;2.50;99252.00;;;;10419780;28;20210;-78
2021/01/31 15:43:19;;;;;;;21.47;13.63;;;;;2.50;99232.00;;;;10424169;28;20233;-80
2021/01/31 15:48:24;;;;;;;23.50;14.27;;;;;2.50;99223.00;;;;10434563;28;20642;-79
2021/01/31 15:53:26;;;;;;;21.40;14.97;;;;;2.40;99217.00;;;;10404957;28;20199;-79
2021/01/31 15:58:27;;;;;;;23.03;14.53;;;;;2.40;99217.00;;;;10419365;28;20218;-79
2021/01/31 16:03:29;;;;;;;21.63;14.43;;;;;2.30;99214.00;;;;10432175;28;20236;-80
2021/01/31 16:08:30;;;;;;;18.10;13.20;;;;;2.30;99206.00;;;;10395166;28;20200;-80
2021/01/31 16:13:31;;;;;;;23.47;14.23;;;;;2.20;99199.00;;;;10394779;28;20213;-79
2021/01/31 16:18:35;;;;;;;22.57;14.50;;;;;2.10;99183.00;;;;10414656;28;20210;-81
2021/01/31 16:23:36;;;;;;;25.50;16.20;;;;;2.10;99180.00;;;;10422138;28;20194;-81
2021/01/31 16:28:38;;;;;;;28.40;17.37;;;;;2.00;99164.00;;;;10446408;28;20183;-79
2021/01/31 16:33:47;;;;;;;27.90;15.80;;;;;1.90;99149.00;;;;10413589;28;20198;-80
2021/01/31 16:38:52;;;;;;;28.57;19.20;;;;;1.90;99145.00;;;;10415562;28;20309;-80
2021/01/31 16:43:53;;;;;;;29.70;17.20;;;;;1.80;99143.00;;;;10414765;28;20604;-80
2021/01/31 16:48:55;;;;;;;28.20;17.53;;;;;1.80;99140.00;;;;10430611;28;20217;-80
2021/01/31 16:54:13;;;;;;;28.33;18.17;;;;;1.80;99130.00;;;;10411875;28;20256;-79
2021/01/31 16:59:24;;;;;;;29.80;18.67;;;;;1.80;99128.00;;;;10412654;28;20214;-80
2021/01/31 17:04:26;;;;;;;32.03;19.57;;;;;1.80;99126.00;;;;10407060;28;20194;-80
2021/01/31 17:09:28;;;;;;;32.13;19.07;;;;;1.80;99112.00;;;;10428618;28;20201;-80
2021/01/31 17:14:34;;;;;;;30.27;18.40;;;;;1.80;99097.00;;;;10425741;28;20711;-79
2021/01/31 17:19:36;;;;;;;30.40;18.50;;;;;1.80;99085.00;;;;10442611;28;20624;-79
2021/01/31 17:24:43;;;;;;;32.80;18.80;;;;;1.80;99081.00;;;;10406688;28;20558;-80
2021/01/31 17:29:44;;;;;;;35.23;20.23;;;;;1.80;99066.00;;;;10419018;28;20194;-80
2021/01/31 17:34:46;;;;;;;29.43;18.97;;;;;1.70;99049.00;;;;10369688;28;20194;-80
2021/01/31 17:39:49;;;;;;;35.27;21.60;;;;;1.70;99047.00;;;;10384841;28;20775;-80
2021/01/31 17:44:59;;;;;;;39.67;20.80;;;;;1.70;99034.00;;;;10389165;28;20222;-80
2021/01/31 17:50:14;;;;;;;35.63;21.50;;;;;1.70;99027.00;;;;10434866;28;20307;-80
2021/01/31 17:55:24;;;;;;;32.40;18.13;;;;;1.70;99007.00;;;;10418827;28;20202;-80
2021/01/31 18:00:28;;;;;;;36.33;19.90;;;;;1.80;99001.00;;;;10418014;28;20198;-80
2021/01/31 18:05:30;;;;;;;35.37;22.20;;;;;1.80;98991.00;;;;10450610;28;20656;-81
2021/01/31 18:10:39;;;;;;;40.27;19.57;;;;;1.80;98992.00;;;;10434069;28;20280;-79
2021/01/31 18:15:47;;;;;;;37.43;21.27;;;;;1.80;98992.00;;;;10450630;28;20650;-79
2021/01/31 18:20:49;;;;;;;36.47;20.70;;;;;1.80;98987.00;;;;10417622;28;20671;-79
2021/01/31 18:25:50;;;;;;;43.73;24.90;;;;;1.80;98973.00;;;;10432935;28;20198;-79
2021/01/31 18:30:52;;;;;;;46.27;23.87;;;;;1.80;98967.00;;;;10431608;28;20198;-79
2021/01/31 18:35:53;;;;;;;44.70;23.57;;;;;1.80;98963.00;;;;10431197;28;20311;-79
2021/01/31 18:40:55;;;;;;;40.63;23.43;;;;;1.80;98963.00;;;;10431221;28;20185;-79
2021/01/31 18:45:56;;;;;;;44.73;24.07;;;;;1.80;98956.00;;;;10414915;28;20210;-78
2021/01/31 18:50:57;;;;;;;48.40;26.57;;;;;1.80;98943.00;;;;10429816;28;20194;-80
2021/01/31 18:56:00;;;;;;;48.17;25.67;;;;;1.80;98940.00;;;;10429392;28;20206;-80
2021/01/31 19:01:15;;;;;;;49.83;24.70;;;;;1.80;98925.00;;;;10430466;28;20216;-78
2021/01/31 19:06:16;;;;;;;45.17;26.53;;;;;1.80;98917.00;;;;10431269;28;20535;-79
2021/01/31 19:11:18;;;;;;;51.83;25.83;;;;;1.80;98905.00;;;;10430544;28;20190;-80
2021/01/31 19:16:21;;;;;;;51.53;25.97;;;;;1.80;98897.00;;;;10430185;28;20684;-79
2021/01/31 19:21:25;;;;;;;52.40;26.60;;;;;1.80;98893.00;;;;10431525;28;20194;-80
2021/01/31 19:26:27;;;;;;;48.47;26.10;;;;;1.90;98888.00;;;;10432751;28;20190;-80
2021/01/31 19:31:29;;;;;;;52.17;26.47;;;;;1.90;98871.00;;;;10430582;28;20194;-79
2021/01/31 19:36:30;;;;;;;48.30;25.27;;;;;1.90;98874.00;;;;10399839;28;20202;-79
2021/01/31 19:41:33;;;;;;;55.53;25.73;;;;;1.90;98864.00;;;;10417449;28;20218;-80
2021/01/31 19:46:34;;;;;;;61.93;28.77;;;;;1.90;98843.00;;;;10415015;28;20260;-80
2021/01/31 19:51:36;;;;;;;59.23;28.60;;;;;2.00;98842.00;;;;10430591;28;20202;-79
2021/01/31 19:56:41;;;;;;;60.07;30.50;;;;;2.00;98839.00;;;;10430396;28;20249;-80
2021/01/31 20:01:43;;;;;;;62.23;31.80;;;;;2.00;98835.00;;;;10430647;28;20198;-80
2021/01/31 20:06:44;;;;;;;58.93;28.70;;;;;2.00;98828.00;;;;10430369;28;20642;-80
2021/01/31 20:11:48;;;;;;;58.93;29.23;;;;;2.00;98824.00;;;;10431025;28;20190;-81
2021/01/31 20:16:49;;;;;;;57.90;27.83;;;;;2.00;98807.00;;;;10415162;28;20300;-80
2021/01/31 20:21:54;;;;;;;61.50;30.13;;;;;2.10;98808.00;;;;10447123;28;20198;-80
2021/01/31 20:26:55;;;;;;;55.83;28.57;;;;;2.10;98803.00;;;;10414049;28;20186;-79
2021/01/31 20:31:58;;;;;;;56.57;29.80;;;;;2.10;98798.00;;;;10430185;28;20324;-81
2021/01/31 20:36:59;;;;;;;62.57;30.07;;;;;2.20;98787.00;;;;10429763;28;20237;-79
2021/01/31 20:42:18;;;;;;;60.80;30.20;;;;;2.20;98774.00;;;;10412702;28;20208;-80
2021/01/31 20:47:20;;;;;;;58.17;31.47;;;;;2.20;98762.00;;;;10428126;28;20283;-79
2021/01/31 20:52:21;;;;;;;58.67;30.17;;;;;2.20;98747.00;;;;10427919;28;20198;-80
2021/01/31 20:57:22;;;;;;;57.80;31.67;;;;;2.20;98744.00;;;;10428092;28;20217;-79
2021/01/31 21:02:24;;;;;;;55.03;27.33;;;;;2.20;98730.00;;;;10412258;28;20201;-81
2021/01/31 21:07:25;;;;;;;52.37;26.90;;;;;2.30;98731.00;;;;10428168;28;20229;-79
2021/01/31 21:12:26;;;;;;;62.53;29.40;;;;;2.30;98731.00;;;;10428714;28;20190;-78
2021/01/31 21:17:28;;;;;;;49.90;25.57;;;;;2.30;98723.00;;;;10429196;28;20210;-80
2021/01/31 21:22:29;;;;;;;59.10;30.80;;;;;2.30;98705.00;;;;10428618;28;20202;-81
2021/01/31 21:27:30;;;;;;;56.40;29.47;;;;;2.30;98702.00;;;;10444369;28;20190;-80
2021/01/31 21:32:32;;;;;;;56.20;28.73;;;;;2.30;98695.00;;;;10411422;28;20638;-79
2021/01/31 21:37:34;;;;;;;55.60;28.90;;;;;2.40;98693.00;;;;10427534;28;20615;-79
2021/01/31 21:42:35;;;;;;;59.13;29.10;;;;;2.40;98677.00;;;;10442616;28;20576;-79
2021/01/31 21:47:41;;;;;;;58.60;29.77;;;;;2.40;98671.00;;;;10427622;28;20196;-78
2021/01/31 21:52:42;;;;;;;56.73;28.10;;;;;2.40;98668.00;;;;10426899;28;20232;-78
2021/01/31 21:57:43;;;;;;;53.63;25.63;;;;;2.50;98664.00;;;;10426552;28;20218;-80
2021/01/31 22:02:45;;;;;;;53.27;28.50;;;;;2.50;98653.00;;;;10427111;28;20244;-79
2021/01/31 22:07:46;;;;;;;55.70;28.43;;;;;2.50;98649.00;;;;10426666;28;20190;-80
2021/01/31 22:12:49;;;;;;;54.40;27.70;;;;;2.50;98648.00;;;;10426818;28;20195;-80
2021/01/31 22:17:50;;;;;;;54.07;28.07;;;;;2.50;98631.00;;;;10410164;28;20232;-80
2021/01/31 22:22:53;;;;;;;56.80;28.20;;;;;2.60;98633.00;;;;10427170;28;20202;-79
2021/01/31 22:27:56;;;;;;;55.53;27.90;;;;;2.60;98637.00;;;;10426388;28;20655;-80
2021/01/31 22:32:58;;;;;;;57.73;28.97;;;;;2.60;98633.00;;;;10414788;28;20238;-80
2021/01/31 22:37:59;;;;;;;49.93;25.57;;;;;2.60;98627.00;;;;10417094;28;20569;-80
2021/01/31 22:43:24;;;;;;;55.50;29.40;;;;;2.60;98625.00;;;;10434242;28;20228;-79
2021/01/31 22:48:25;;;;;;;55.13;27.60;;;;;2.60;98626.00;;;;10416892;28;20534;-80
2021/01/31 22:53:28;;;;;;;49.97;26.87;;;;;2.60;98615.00;;;;10432403;28;20599;-80
2021/01/31 22:58:30;;;;;;;53.47;27.27;;;;;2.60;98601.00;;;;10430649;28;20229;-80
2021/01/31 23:03:32;;;;;;;58.83;30.60;;;;;2.60;98605.00;;;;10414851;28;20210;-79
2021/01/31 23:08:34;;;;;;;59.53;31.13;;;;;2.60;98605.00;;;;10427938;28;20186;-78
2021/01/31 23:13:35;;;;;;;54.73;30.20;;;;;2.60;98605.00;;;;10448509;28;20711;-79
2021/01/31 23:18:38;;;;;;;58.40;29.53;;;;;2.60;98597.00;;;;10465344;28;20217;-78
2021/01/31 23:23:39;;;;;;;60.33;30.33;;;;;2.60;98603.00;;;;10433139;28;20233;-80
2021/01/31 23:28:40;;;;;;;62.57;32.13;;;;;2.60;98607.00;;;;10417414;28;20244;-79
2021/01/31 23:33:42;;;;;;;62.60;30.37;;;;;2.60;98609.00;;;;10432808;28;20218;-80
2021/01/31 23:38:43;;;;;;;61.30;29.23;;;;;2.60;98605.00;;;;10432832;28;20210;-81
2021/01/31 23:43:45;;;;;;;64.70;31.80;;;;;2.60;98603.00;;;;10431618;28;20240;-79
2021/01/31 23:48:46;;;;;;;68.77;33.07;;;;;2.70;98586.00;;;;10432710;28;20244;-80
2021/01/31 23:53:47;;;;;;;71.73;32.63;;;;;2.70;98586.00;;;;10432025;28;20255;-80
2021/01/31 23:58:49;;;;;;;67.70;34.07;;;;;2.60;98578.00;;;;10448295;28;20237;-80
